Latest Weather Observations for Bankstown

IDN60801

Issued at 6:02 pm EST Tuesday 1 September 2015 (issued every 30 minutes, with the page automatically refreshed every 10 minutes)

About weather observations | Map of weather stations | Latest weather observations for NSW | Other Formats
Station Details ID: 066137 Name: BANKSTOWN AIRPORT AWS Lat: -33.92 Lon: 150.99 Height: 6.5 m
Data from the previous 72 hours. | See also: Recent months at Bankstown
Date/Time
EST
Temp
°C
App
Temp
°C
Dew
Point
Rel
Hum
%
Delta-T
°C
Wind Press
QNH
hPa
Press
MSL
hPa
Rain
since 9 am
mm
Dir
 
Spd
km/h
Gust
km/h
Spd
kts
Gust
kts
01/06:00pm 14.2 10.5 2.5 45 5.2 E 11 13 6 7 1014.0 1014.0 0.0
01/05:30pm 15.0 10.5 2.2 42 5.7 E 15 19 8 10 1013.7 1013.7 0.0
01/05:00pm 15.8 10.5 1.9 39 6.2 ESE 19 22 10 12 1013.5 1013.5 0.0
01/04:30pm 16.6 10.7 1.9 37 6.6 ESE 22 28 12 15 1013.2 1013.2 0.0
01/04:00pm 17.2 11.2 1.2 34 7.1 ESE 22 26 12 14 1013.1 1013.1 0.0
01/03:30pm 18.1 13.0 0.7 31 7.7 ESE 17 22 9 12 1012.9 1012.9 0.0
01/03:00pm 18.2 12.5 -0.6 28 8.1 SE 19 26 10 14 1012.9 1012.9 0.0
01/02:30pm 18.7 14.6 -3.4 22 9.0 ESE 9 19 5 10 1013.0 1013.0 0.0
01/02:00pm 18.5 14.8 -3.0 23 8.8 NE 7 13 4 7 1013.2 1013.2 0.0
01/01:30pm 18.1 14.6 -1.7 26 8.3 NE 7 17 4 9 1013.3 1013.3 0.0
01/01:00pm 17.6 13.9 -2.6 25 8.3 W 7 15 4 8 1013.8 1013.8 0.0
01/12:30pm 16.8 12.2 -1.3 29 7.6 NW 13 15 7 8 1014.4 1014.4 0.0
01/12:00pm 16.2 12.4 -0.9 31 7.2 SSW 9 15 5 8 1014.8 1014.8 0.0
01/11:30am 15.5 10.9 -0.7 33 6.8 SSW 13 20 7 11 1015.4 1015.4 0.0
01/11:00am 14.7 10.2 -0.6 35 6.3 SW 13 19 7 10 1015.7 1015.7 0.0
01/10:30am 14.6 9.3 -0.7 35 6.3 SW 17 28 9 15 1015.9 1015.9 0.0
01/10:00am 13.8 9.1 0.8 41 5.5 WSW 15 20 8 11 1016.0 1016.0 0.0
01/09:30am 13.3 8.3 1.6 45 5.0 WSW 17 24 9 13 1016.2 1016.2 0.0
01/09:00am 12.0 8.6 4.0 58 3.6 SW 11 17 6 9 1016.2 1016.2 0.0
01/08:30am 10.3 7.4 4.5 67 2.6 SW 9 13 5 7 1016.4 1016.4 0.0
01/08:00am 9.0 8.3 6.8 86 1.0 CALM 0 0 0 0 1016.2 1016.2 0.0
01/07:30am 7.2 6.2 5.5 89 0.8 CALM 0 0 0 0 1016.0 1016.0 0.0
01/07:00am 5.2 3.8 3.5 89 0.7 CALM 0 0 0 0 1015.8 1015.8 0.0
01/06:30am 4.2 2.6 2.4 88 0.7 CALM 0 0 0 0 1015.6 1015.6 0.0
01/06:00am 4.4 2.8 2.6 88 0.7 CALM 0 0 0 0 1015.5 1015.5 0.0
01/05:30am 4.6 3.1 2.8 88 0.7 CALM 0 0 0 0 1015.1 1015.1 0.0
01/05:00am 5.0 3.5 3.0 87 0.8 CALM 0 0 0 0 1014.9 1014.9 0.0
01/04:53am 5.4 4.0 3.4 87 0.8 CALM 0 0 0 0 1014.8 1014.8 0.0
01/04:30am 5.0 3.5 3.0 87 0.8 CALM 0 0 0 0 1014.8 1014.8 0.0
01/04:26am 5.3 3.9 3.3 87 0.8 CALM 0 0 0 0 1014.8 1014.8 0.0
01/04:00am 5.1 3.6 3.0 86 0.9 CALM 0 0 0 0 1014.8 1014.8 0.0
01/03:30am 5.5 4.0 3.2 85 1.0 CALM 0 0 0 0 1014.7 1014.7 0.0
01/03:00am 6.1 4.7 3.4 83 1.1 CALM 0 0 0 0 1014.8 1014.8 0.0
01/02:30am 7.2 6.0 4.7 84 1.1 CALM 0 0 0 0 1015.0 1015.0 0.0
01/02:00am 6.3 4.9 3.5 82 1.2 CALM 0 0 0 0 1015.3 1015.3 0.0
01/01:30am 7.0 5.7 4.1 82 1.2 CALM 0 0 0 0 1015.3 1015.3 0.0
01/01:00am 8.1 7.1 5.6 84 1.1 CALM 0 0 0 0 1015.6 1015.6 0.0
01/12:30am 7.0 5.7 4.0 81 1.3 CALM 0 0 0 0 1015.7 1015.7 0.0
01/12:00am 8.6 6.9 5.7 82 1.3 SW 4 7 2 4 1015.7 1015.7 0.0
 
Date/Time
EST
Temp
°C
App
Temp
°C
Dew
Point
Rel
Hum
%
Delta-T
°C
Wind Press
QNH
hPa
Press
MSL
hPa
Rain
since 9 am
mm
Dir
 
Spd
km/h
Gust
km/h
Spd
kts
Gust
kts
31/11:30pm 8.3 6.8 5.2 81 1.4 SSW 2 6 1 3 1015.8 1015.8 0.0
31/11:00pm 8.7 7.7 5.6 81 1.4 CALM 0 0 0 0 1015.9 1015.9 0.0
31/10:30pm 8.9 6.6 5.8 81 1.4 W 7 9 4 5 1015.9 1015.9 0.0
31/10:00pm 9.3 8.4 6.0 80 1.5 CALM 0 0 0 0 1016.0 1016.0 0.0
31/09:30pm 9.7 8.9 6.4 80 1.5 CALM 0 4 0 2 1016.0 1016.0 0.0
31/09:00pm 10.0 8.1 6.5 79 1.6 SSW 6 7 3 4 1015.9 1015.9 0.0
31/08:30pm 10.4 9.5 6.0 74 2.0 CALM 0 0 0 0 1015.7 1015.7 0.0
31/08:00pm 11.1 9.0 6.0 71 2.4 SSW 6 6 3 3 1015.6 1015.6 0.0
31/07:30pm 12.3 10.3 6.4 67 2.8 SSW 6 7 3 4 1015.2 1015.2 0.0
31/07:00pm 11.2 8.8 5.1 66 2.8 SSW 7 7 4 4 1015.0 1015.0 0.0
31/06:30pm 13.2 10.8 4.4 55 4.0 SSE 6 9 3 5 1014.8 1014.8 0.0
31/06:00pm 14.5 11.2 4.5 51 4.6 SE 11 13 6 7 1014.5 1014.5 0.0
31/05:30pm 15.3 11.3 4.7 49 5.0 SE 15 20 8 11 1014.3 1014.3 0.0
31/05:00pm 16.1 11.0 4.2 45 5.5 SE 20 24 11 13 1014.1 1014.1 0.0
31/04:30pm 16.7 11.7 3.4 41 6.1 SE 19 22 10 12 1013.8 1013.8 0.0
31/04:00pm 16.9 10.8 2.5 38 6.5 ESE 24 30 13 16 1013.7 1013.7 0.0
31/03:30pm 17.6 11.8 2.4 36 6.9 SE 22 30 12 16 1013.7 1013.7 0.0
31/03:00pm 18.0 12.2 2.3 35 7.1 SE 22 28 12 15 1013.7 1013.7 0.0
31/02:30pm 18.1 12.6 2.0 34 7.3 ESE 20 30 11 16 1013.7 1013.7 0.0
31/02:00pm 18.8 14.0 -0.1 28 8.2 SW 15 22 8 12 1014.0 1014.0 0.0
31/01:30pm 18.4 14.5 1.4 32 7.6 WSW 11 24 6 13 1014.3 1014.3 0.0
31/01:00pm 18.6 15.2 1.6 32 7.7 S 9 19 5 10 1014.6 1014.6 0.0
31/12:30pm 17.9 13.3 1.8 34 7.2 SW 15 22 8 12 1015.1 1015.1 0.0
31/12:00pm 16.9 12.7 1.4 35 6.8 SSW 13 20 7 11 1015.7 1015.7 0.0
31/11:30am 16.6 12.0 1.5 36 6.7 SW 15 24 8 13 1016.2 1016.2 0.0
31/11:00am 16.3 10.7 1.2 36 6.6 SSW 20 32 11 17 1016.6 1016.6 0.0
31/10:30am 15.6 11.1 2.1 40 6.0 SW 15 22 8 12 1017.0 1017.0 0.0
31/10:00am 15.0 10.9 2.2 42 5.7 SW 13 20 7 11 1017.2 1017.2 0.0
31/09:30am 13.5 8.5 1.5 44 5.2 SW 17 22 9 12 1017.6 1017.6 0.0
31/09:00am 13.0 8.5 2.3 48 4.7 SW 15 20 8 11 1017.6 1017.6 0.0
31/08:30am 11.9 7.6 3.2 55 3.8 SW 15 19 8 10 1017.8 1017.8 0.0
31/08:00am 11.1 7.8 4.3 63 3.0 SW 11 15 6 8 1017.9 1017.9 0.0
31/07:30am 9.5 6.3 5.1 74 2.0 SW 11 17 6 9 1017.7 1017.7 0.0
31/07:00am 7.8 5.6 5.4 85 1.1 SW 6 7 3 4 1017.6 1017.6 0.0
31/06:30am 6.7 5.5 4.4 85 1.0 CALM 0 0 0 0 1017.4 1017.4 0.0
31/06:00am 6.4 5.0 3.6 82 1.2 CALM 0 0 0 0 1017.1 1017.1 0.0
31/05:30am 7.0 4.9 4.1 82 1.2 WSW 4 7 2 4 1017.0 1017.0 0.0
31/05:00am 7.2 4.7 3.8 79 1.5 WSW 6 7 3 4 1016.9 1016.9 0.0
31/04:30am 7.8 5.4 4.4 79 1.5 WSW 6 7 3 4 1017.0 1017.0 0.0
31/04:00am 8.2 5.8 4.4 77 1.7 WSW 6 9 3 5 1017.0 1017.0 0.0
31/03:30am 8.2 5.6 4.4 77 1.7 SSW 7 7 4 4 1017.1 1017.1 0.0
31/03:00am 8.6 6.0 4.4 75 1.8 SSW 7 9 4 5 1017.1 1017.1 0.0
31/02:30am 9.3 6.8 4.7 73 2.0 SSW 7 11 4 6 1017.5 1017.5 0.0
31/02:00am 10.0 6.8 5.2 72 2.2 SSW 11 15 6 8 1017.8 1017.8 0.0
31/01:30am 10.4 7.2 5.2 70 2.4 S 11 15 6 8 1018.2 1018.2 0.0
31/01:00am 11.2 8.5 5.7 69 2.5 SSW 9 13 5 7 1018.5 1018.5 0.0
31/12:30am 11.4 8.7 5.7 68 2.6 SW 9 11 5 6 1018.7 1018.7 0.0
31/12:00am 11.5 9.2 5.6 67 2.7 SW 7 11 4 6 1018.8 1018.8 0.0
 
Date/Time
EST
Temp
°C
App
Temp
°C
Dew
Point
Rel
Hum
%
Delta-T
°C
Wind Press
QNH
hPa
Press
MSL
hPa
Rain
since 9 am
mm
Dir
 
Spd
km/h
Gust
km/h
Spd
kts
Gust
kts
30/11:30pm 11.6 8.9 5.5 66 2.8 SW 9 13 5 7 1018.8 1018.8 0.0
30/11:00pm 11.7 9.4 5.6 66 2.8 SW 7 13 4 7 1018.8 1018.8 0.0
30/10:30pm 11.8 9.1 5.7 66 2.8 WSW 9 13 5 7 1019.0 1019.0 0.0
30/10:00pm 11.8 9.2 6.1 68 2.7 WSW 9 13 5 7 1019.1 1019.1 0.0
30/09:30pm 11.0 8.8 6.4 73 2.2 W 7 9 4 5 1019.1 1019.1 0.0
30/09:00pm 10.7 8.4 5.7 71 2.3 SW 7 9 4 5 1019.0 1019.0 0.0
30/08:30pm 11.0 8.8 6.0 71 2.3 SW 7 9 4 5 1018.9 1018.9 0.0
30/08:00pm 10.9 9.5 5.7 70 2.4 S 2 7 1 4 1018.7 1018.7 0.0
30/07:30pm 11.0 9.1 4.7 65 2.8 SSE 4 6 2 3 1018.5 1018.5 0.0
30/07:00pm 13.3 10.7 4.2 54 4.1 SE 7 9 4 5 1018.3 1018.3 0.0
30/06:30pm 13.6 10.2 3.9 52 4.4 SE 11 15 6 8 1018.2 1018.2 0.0
30/06:00pm 14.1 10.3 4.1 51 4.6 SE 13 19 7 10 1018.0 1018.0 0.0
30/05:30pm 14.6 9.9 3.4 47 5.1 SSE 17 24 9 13 1017.8 1017.8 0.0
30/05:00pm 15.3 9.6 3.1 44 5.5 SSE 22 30 12 16 1017.6 1017.6 0.0
30/04:30pm 15.8 10.3 3.9 45 5.5 SE 22 26 12 14 1017.5 1017.5 0.0
30/04:00pm 16.1 11.0 3.9 44 5.6 SSE 20 26 11 14 1017.4 1017.4 0.0
30/03:30pm 16.6 11.0 3.3 41 6.1 SE 22 28 12 15 1017.3 1017.3 0.0
30/03:00pm 16.3 11.2 3.0 41 6.0 SE 19 28 10 15 1017.4 1017.4 0.0
30/02:30pm 17.0 12.9 2.2 37 6.7 SSE 13 17 7 9 1017.5 1017.5 0.0
30/02:00pm 17.5 13.0 1.9 35 7.0 S 15 22 8 12 1017.5 1017.5 0.0
30/01:30pm 16.9 12.6 1.0 34 7.0 SSE 13 20 7 11 1017.7 1017.7 0.0
30/01:00pm 17.3 13.1 1.7 35 7.0 S 13 19 7 10 1018.0 1018.0 0.0
30/12:30pm 17.2 12.9 1.2 34 7.1 ESE 13 24 7 13 1018.3 1018.3 0.0
30/12:00pm 17.2 12.6 1.6 35 6.9 SE 15 24 8 13 1018.9 1018.9 0.0
30/11:30am 16.7 13.4 2.3 38 6.5 S 9 15 5 8 1019.4 1019.4 0.0
30/11:00am 15.6 12.1 1.3 38 6.2 WSW 9 17 5 9 1019.9 1019.9 0.0
30/10:30am 14.9 11.0 1.4 40 5.9 SW 11 19 6 10 1020.1 1020.1 0.0
30/10:00am 14.3 9.3 1.6 42 5.5 WSW 17 22 9 12 1020.4 1020.4 0.0
30/09:30am 13.4 7.8 1.4 44 5.1 WSW 20 24 11 13 1020.4 1020.4 0.0
30/09:00am 12.3 7.4 1.9 49 4.4 SW 17 24 9 13 1020.7 1020.7 0.0
30/08:30am 10.9 6.1 2.7 57 3.5 SW 17 24 9 13 1020.6 1020.6 0.0
30/08:00am 9.6 5.5 2.2 60 3.1 SW 13 20 7 11 1020.6 1020.6 0.0
30/07:30am 8.5 5.5 2.1 64 2.7 W 7 15 4 8 1020.5 1020.5 0.0
30/07:00am 7.1 4.2 2.4 72 1.9 NW 7 9 4 5 1020.3 1020.3 0.0
30/06:30am 6.1 3.0 1.4 72 1.9 WNW 7 13 4 7 1020.1 1020.1 0.0
30/06:00am 6.5 3.4 1.6 71 2.0 W 7 9 4 5 1019.9 1019.9 0.0
30/05:30am 6.1 2.9 0.9 69 2.0 W 7 9 4 5 1019.6 1019.6 0.0
30/05:00am 6.4 2.8 0.9 68 2.2 W 9 13 5 7 1019.5 1019.5 0.0
30/04:30am 7.0 3.8 0.9 65 2.4 WSW 7 11 4 6 1019.4 1019.4 0.0
30/04:00am 7.2 4.0 0.9 64 2.5 W 7 9 4 5 1019.4 1019.4 0.0
30/03:30am 7.3 3.4 1.0 64 2.5 W 11 15 6 8 1019.5 1019.5 0.0
30/03:00am 7.4 3.9 1.0 64 2.6 WSW 9 13 5 7 1019.7 1019.7 0.0
30/02:30am 7.2 3.6 0.9 64 2.5 W 9 13 5 7 1019.9 1019.9 0.0
30/02:00am 7.5 4.1 1.6 66 2.4 W 9 11 5 6 1020.2 1020.2 0.0
30/01:30am 7.6 4.7 1.2 64 2.6 SW 6 7 3 4 1020.6 1020.6 0.0
30/01:00am 7.8 4.3 1.4 64 2.6 SW 9 15 5 8 1020.8 1020.8 0.0
30/12:30am 7.8 5.7 1.6 65 2.5 SW 2 7 1 4 1021.0 1021.0 0.0
30/12:00am 8.0 5.2 2.0 66 2.5 SSW 6 9 3 5 1021.0 1021.0 0.0
 
Date/Time
EST
Temp
°C
App
Temp
°C
Dew
Point
Rel
Hum
%
Delta-T
°C
Wind Press
QNH
hPa
Press
MSL
hPa
Rain
since 9 am
mm
Dir
 
Spd
km/h
Gust
km/h
Spd
kts
Gust
kts
29/11:30pm 7.8 4.4 2.1 67 2.4 SSW 9 13 5 7 1021.0 1021.0 0.0
29/11:00pm 8.3 5.5 2.3 66 2.5 SSW 6 7 3 4 1021.2 1021.2 0.0
29/10:30pm 9.0 6.8 1.0 57 3.3 SSW 2 7 1 4 1021.2 1021.2 0.0
29/10:00pm 10.0 7.9 1.4 55 3.6 SSW 2 7 1 4 1021.2 1021.2 0.0
29/09:30pm 9.8 6.6 0.9 54 3.6 SSW 7 9 4 5 1021.2 1021.2 0.0
29/09:00pm 9.8 6.2 0.4 52 3.8 SSW 9 11 5 6 1021.1 1021.1 0.0
29/08:30pm 11.4 6.6 0.5 47 4.5 SW 15 17 8 9 1020.6 1020.6 0.0
29/08:00pm 11.3 7.7 0.7 48 4.4 SW 9 13 5 7 1020.3 1020.3 0.0
29/07:30pm 13.0 9.7 0.4 42 5.3 SSE 7 9 4 5 1019.9 1019.9 0.0
29/07:00pm 13.4 9.1 0.8 42 5.3 SE 13 15 7 8 1019.4 1019.4 0.0
29/06:30pm 14.5 10.8 0.0 37 6.1 SSE 9 13 5 7 1019.0 1019.0 0.0

Other Formats:

Comma delimited format used in spreadsheet applications
http://www.bom.gov.au/fwo/IDN60801/IDN60801.94765.axf

JavaScript Object Notation format (JSON) in row-major order
http://www.bom.gov.au/fwo/IDN60801/IDN60801.94765.json